createdAt,value
2022-11-08T00:02:07.758Z,1.20
2022-11-08T00:04:38.770Z,1.00
2022-11-08T00:07:27.724Z,1.30
2022-11-08T00:10:16.852Z,1.00
2022-11-08T00:13:05.523Z,1.00
2022-11-08T00:15:39.851Z,1.17
2022-11-08T00:18:11.020Z,1.30
2022-11-08T00:20:41.734Z,0.93
2022-11-08T00:23:12.602Z,0.98
2022-11-08T00:25:43.320Z,1.17
2022-11-08T00:28:14.066Z,1.05
2022-11-08T00:30:45.547Z,1.10
2022-11-08T00:33:16.247Z,1.17
2022-11-08T00:35:47.025Z,1.03
2022-11-08T00:38:18.003Z,1.07
2022-11-08T00:40:49.128Z,0.90
2022-11-08T00:43:20.303Z,1.20
2022-11-08T00:45:51.157Z,1.05
2022-11-08T00:48:22.228Z,1.20
2022-11-08T00:50:53.186Z,1.10
2022-11-08T00:53:24.099Z,1.05
2022-11-08T00:56:07.768Z,1.10
2022-11-08T00:58:38.452Z,0.80
2022-11-08T01:01:21.561Z,1.10
2022-11-08T01:03:52.666Z,1.20
2022-11-08T01:06:24.716Z,1.30
2022-11-08T01:08:58.660Z,1.55
2022-11-08T01:11:30.255Z,1.00
2022-11-08T01:16:34.108Z,1.00
2022-11-08T01:19:05.507Z,0.90
2022-11-08T01:24:07.546Z,1.10
2022-11-08T01:29:08.852Z,0.90
2022-11-08T01:31:39.947Z,0.93
2022-11-08T01:34:10.800Z,0.90
2022-11-08T01:36:41.664Z,0.90
2022-11-08T01:39:12.948Z,0.67
2022-11-08T01:41:43.943Z,0.73
2022-11-08T01:44:19.328Z,0.80
2022-11-08T01:46:51.281Z,0.73
2022-11-08T01:49:34.134Z,1.43
2022-11-08T01:52:13.151Z,0.90
2022-11-08T01:55:02.676Z,1.00
2022-11-08T01:57:50.276Z,1.00
2022-11-08T02:00:21.771Z,1.00
2022-11-08T02:02:58.730Z,1.00
2022-11-08T02:05:31.913Z,1.00
2022-11-08T02:08:08.110Z,1.00
2022-11-08T02:10:41.603Z,0.85
2022-11-08T02:13:16.324Z,0.80
2022-11-08T02:15:47.648Z,1.00
2022-11-08T02:18:20.029Z,1.05
2022-11-08T02:21:30.941Z,1.30
2022-11-08T02:24:03.626Z,1.00
2022-11-08T02:26:37.174Z,1.25
2022-11-08T02:29:33.825Z,1.10
2022-11-08T02:32:06.933Z,1.20
2022-11-08T02:34:43.268Z,1.52
2022-11-08T02:37:16.740Z,1.50
2022-11-08T02:39:49.289Z,1.48
2022-11-08T02:42:22.084Z,1.80
2022-11-08T02:44:52.761Z,1.85
2022-11-08T02:47:25.593Z,1.83
2022-11-08T02:49:56.305Z,2.10
2022-11-08T02:52:27.223Z,1.60
2022-11-08T02:54:58.180Z,1.65
2022-11-08T02:57:29.131Z,1.80
2022-11-08T02:59:59.829Z,1.70
2022-11-08T03:02:30.849Z,1.70
2022-11-08T03:05:01.632Z,1.65
2022-11-08T03:07:33.123Z,1.92
2022-11-08T03:10:03.825Z,1.90
2022-11-08T03:12:34.751Z,2.13
2022-11-08T03:15:07.236Z,2.55
2022-11-08T03:17:38.516Z,2.35
2022-11-08T03:20:10.073Z,1.90
2022-11-08T03:22:40.974Z,2.00
2022-11-08T03:25:11.801Z,2.60
2022-11-08T03:27:43.950Z,2.55
2022-11-08T03:30:15.017Z,2.15
2022-11-08T03:35:19.273Z,2.20
2022-11-08T03:37:57.958Z,2.10
2022-11-08T03:40:29.541Z,2.42
2022-11-08T03:43:00.280Z,2.00
2022-11-08T03:45:31.588Z,2.30
2022-11-08T03:48:02.468Z,2.03
2022-11-08T03:50:33.389Z,2.47
2022-11-08T03:53:04.355Z,2.30
2022-11-08T03:55:35.245Z,2.80
2022-11-08T03:58:05.988Z,2.80
2022-11-08T04:00:36.851Z,2.55
2022-11-08T04:03:07.505Z,2.60
2022-11-08T04:05:38.217Z,2.33
2022-11-08T04:08:08.932Z,2.00
2022-11-08T04:10:39.635Z,1.63
2022-11-08T04:13:29.343Z,1.40
2022-11-08T04:16:00.515Z,1.30
2022-11-08T04:18:49.649Z,1.38
2022-11-08T04:21:23.093Z,1.33
2022-11-08T04:23:55.038Z,1.45
2022-11-08T04:28:56.112Z,1.10
2022-11-08T04:31:27.025Z,1.25
2022-11-08T04:33:58.623Z,1.30
2022-11-08T04:36:29.558Z,0.90
2022-11-08T04:39:00.500Z,1.10
2022-11-08T04:41:31.445Z,1.17
2022-11-08T04:44:02.331Z,0.98
2022-11-08T04:46:33.299Z,0.90
2022-11-08T04:49:04.244Z,1.15
2022-11-08T04:51:36.105Z,1.08
2022-11-08T04:54:09.079Z,1.23
2022-11-08T04:56:40.018Z,1.00
2022-11-08T04:59:12.260Z,1.30
2022-11-08T05:01:43.852Z,1.20
2022-11-08T05:04:14.611Z,1.08
2022-11-08T05:06:46.070Z,1.00
2022-11-08T05:09:17.150Z,0.95
2022-11-08T05:11:47.843Z,1.10
2022-11-08T05:14:18.745Z,1.20
2022-11-08T05:16:49.805Z,1.08
2022-11-08T05:19:41.159Z,1.30
2022-11-08T05:22:30.444Z,1.58
2022-11-08T05:25:01.494Z,0.98
2022-11-08T05:27:33.012Z,2.47
2022-11-08T05:30:04.143Z,1.17
2022-11-08T05:32:34.914Z,2.08
2022-11-08T05:35:06.573Z,1.50
2022-11-08T05:37:37.440Z,1.30
2022-11-08T05:40:09.042Z,1.50
2022-11-08T05:42:39.878Z,1.15
2022-11-08T05:45:11.121Z,1.30
2022-11-08T05:47:45.335Z,1.38
2022-11-08T05:50:19.347Z,1.60
2022-11-08T05:52:50.965Z,1.55
2022-11-08T05:55:22.108Z,1.33
2022-11-08T05:57:53.902Z,1.75
2022-11-08T06:00:24.772Z,1.30
2022-11-08T06:02:55.840Z,1.23
2022-11-08T06:05:26.665Z,1.90
2022-11-08T06:07:57.463Z,1.48
2022-11-08T06:10:28.778Z,1.50
2022-11-08T06:13:03.159Z,1.40
2022-11-08T06:15:34.032Z,1.30
2022-11-08T06:18:06.556Z,1.20
2022-11-08T06:20:37.515Z,1.52
2022-11-08T06:23:08.254Z,1.27
2022-11-08T06:25:41.092Z,1.50
2022-11-08T06:28:14.698Z,1.48
2022-11-08T06:30:45.970Z,1.50
2022-11-08T06:33:17.162Z,2.10
2022-11-08T06:35:48.792Z,1.40
2022-11-08T06:38:19.968Z,1.63
2022-11-08T06:40:51.017Z,1.45
2022-11-08T06:43:22.404Z,1.75
2022-11-08T06:45:53.528Z,1.42
2022-11-08T06:48:24.425Z,1.50
2022-11-08T06:50:55.357Z,1.30
2022-11-08T06:53:26.224Z,1.63
2022-11-08T06:55:57.180Z,1.20
2022-11-08T06:58:27.949Z,1.25
2022-11-08T07:00:58.720Z,1.20
2022-11-08T07:03:29.382Z,1.15
2022-11-08T07:06:00.418Z,1.30
2022-11-08T07:08:31.789Z,1.10
2022-11-08T07:11:02.792Z,1.30
2022-11-08T07:13:33.869Z,1.38
2022-11-08T07:16:04.821Z,1.48
2022-11-08T07:18:35.818Z,1.30
2022-11-08T07:21:06.856Z,1.20
2022-11-08T07:23:37.813Z,1.90
2022-11-08T07:26:10.445Z,1.90
2022-11-08T07:28:41.267Z,1.45
2022-11-08T07:31:13.666Z,1.52
2022-11-08T07:33:44.808Z,1.40
2022-11-08T07:36:16.422Z,1.40
2022-11-08T07:38:47.549Z,1.30
2022-11-08T07:41:18.763Z,1.50
2022-11-08T07:43:50.603Z,1.42
2022-11-08T07:46:22.294Z,1.20
2022-11-08T07:48:53.423Z,1.40
2022-11-08T07:51:24.513Z,2.15
2022-11-08T07:53:58.017Z,1.43
2022-11-08T07:56:31.255Z,1.50
2022-11-08T07:59:02.153Z,1.63
2022-11-08T08:01:33.047Z,1.50
2022-11-08T08:04:04.086Z,1.10
2022-11-08T08:06:35.182Z,1.30
2022-11-08T08:09:06.331Z,1.50
2022-11-08T08:11:37.097Z,1.20
2022-11-08T08:14:07.805Z,1.67
2022-11-08T08:16:38.785Z,1.65
2022-11-08T08:19:09.568Z,1.35
2022-11-08T08:21:40.281Z,1.50
2022-11-08T08:24:11.493Z,1.58
2022-11-08T08:26:42.363Z,1.65
2022-11-08T08:29:13.270Z,1.20
2022-11-08T08:31:44.504Z,1.60
2022-11-08T08:34:17.119Z,1.40
2022-11-08T08:36:48.437Z,1.63
2022-11-08T08:39:19.696Z,1.35
2022-11-08T08:41:50.628Z,1.30
2022-11-08T08:44:21.783Z,1.40
2022-11-08T08:46:53.031Z,1.52
2022-11-08T08:49:23.957Z,1.48
2022-11-08T08:51:54.657Z,1.60
2022-11-08T08:54:29.286Z,1.80
2022-11-08T08:57:00.527Z,1.83
2022-11-08T09:02:22.312Z,2.20
2022-11-08T09:04:53.552Z,2.38
2022-11-08T09:07:24.293Z,2.75
2022-11-08T09:09:55.225Z,3.10
2022-11-08T09:12:35.114Z,2.50
2022-11-08T09:15:07.160Z,3.20
2022-11-08T09:17:37.888Z,3.05
2022-11-08T09:20:09.218Z,3.05
2022-11-08T09:22:40.464Z,3.17
2022-11-08T09:25:11.927Z,2.95
2022-11-08T09:27:42.744Z,3.17
2022-11-08T09:30:13.792Z,3.40
2022-11-08T09:33:00.413Z,3.60
2022-11-08T09:35:32.129Z,3.70
2022-11-08T09:38:03.394Z,3.58
2022-11-08T09:40:56.064Z,4.28
2022-11-08T09:43:50.731Z,4.13
2022-11-08T09:46:31.692Z,4.07
2022-11-08T09:49:02.872Z,4.20
2022-11-08T09:51:34.658Z,4.68
2022-11-08T09:54:07.250Z,4.70
2022-11-08T09:56:39.647Z,5.13
2022-11-08T09:59:28.084Z,4.72
2022-11-08T10:01:58.948Z,4.78
2022-11-08T10:04:34.150Z,4.85
2022-11-08T10:07:14.791Z,4.50
2022-11-08T10:09:54.606Z,4.78
2022-11-08T10:12:43.789Z,4.57
2022-11-08T10:15:23.968Z,4.88
2022-11-08T10:18:20.463Z,4.32
2022-11-08T10:21:09.360Z,4.32
2022-11-08T10:23:46.151Z,3.92
2022-11-08T10:26:26.867Z,3.80
2022-11-08T10:29:22.956Z,3.30
2022-11-08T10:32:19.401Z,3.33
2022-11-08T10:35:00.027Z,3.20
2022-11-08T10:37:34.793Z,3.25
2022-11-08T10:40:29.537Z,3.17
2022-11-08T10:43:09.207Z,3.00
2022-11-08T10:45:40.519Z,2.70
2022-11-08T10:48:14.141Z,3.22
2022-11-08T10:50:52.141Z,3.20
2022-11-08T10:53:33.966Z,2.60
2022-11-08T10:58:40.792Z,2.60
2022-11-08T11:01:25.166Z,2.50
2022-11-08T11:03:56.440Z,2.35
2022-11-08T11:06:32.090Z,3.20
2022-11-08T11:09:06.285Z,3.13
2022-11-08T11:11:40.601Z,2.80
2022-11-08T11:14:25.271Z,2.92
2022-11-08T11:17:18.060Z,3.00
2022-11-08T11:19:59.523Z,3.08
2022-11-08T11:22:35.352Z,3.00
2022-11-08T11:25:23.992Z,3.00
2022-11-08T11:28:00.203Z,3.67
2022-11-08T11:30:32.249Z,3.45
2022-11-08T11:33:28.582Z,3.60
2022-11-08T11:36:14.206Z,2.83
2022-11-08T11:38:55.416Z,2.60
2022-11-08T11:42:08.705Z,2.70
2022-11-08T11:47:28.346Z,1.90
2022-11-08T11:50:05.520Z,2.25
2022-11-08T11:52:36.863Z,2.28
2022-11-08T11:55:08.041Z,2.00
2022-11-08T11:58:07.333Z,2.22
2022-11-08T12:00:43.587Z,1.80
2022-11-08T12:03:38.331Z,2.20
2022-11-08T12:06:33.183Z,2.00
2022-11-08T12:09:29.675Z,2.00
2022-11-08T12:12:19.477Z,1.98
2022-11-08T12:15:08.494Z,1.88
2022-11-08T12:18:09.795Z,1.90
2022-11-08T12:20:52.848Z,1.90
2022-11-08T12:23:29.299Z,1.70
2022-11-08T12:26:11.395Z,1.75
2022-11-08T12:29:04.591Z,1.45
2022-11-08T12:31:38.929Z,1.50
2022-11-08T12:34:25.922Z,1.60
2022-11-08T12:37:25.216Z,1.58
2022-11-08T12:40:23.644Z,1.70
2022-11-08T12:43:03.515Z,1.50
2022-11-08T12:45:43.109Z,1.55
2022-11-08T12:48:22.907Z,1.60
2022-11-08T12:51:04.636Z,1.55
2022-11-08T12:54:01.303Z,1.60
2022-11-08T12:56:46.290Z,1.50
2022-11-08T12:59:31.520Z,1.50
2022-11-08T13:02:04.535Z,1.73
2022-11-08T13:04:41.361Z,1.52
2022-11-08T13:07:43.037Z,1.63
2022-11-08T13:10:17.828Z,1.50
2022-11-08T13:13:15.071Z,1.48
2022-11-08T13:16:11.596Z,1.70
2022-11-08T13:18:55.863Z,1.65
2022-11-08T13:21:35.771Z,2.25
2022-11-08T13:24:38.097Z,1.23
2022-11-08T13:27:42.766Z,1.70
2022-11-08T13:30:19.935Z,1.50
2022-11-08T13:33:11.569Z,1.60
2022-11-08T13:38:43.438Z,1.33
2022-11-08T13:41:21.569Z,1.38
2022-11-08T13:43:55.619Z,1.27
2022-11-08T13:46:32.410Z,1.30
2022-11-08T13:49:09.254Z,1.90
2022-11-08T13:51:43.763Z,1.38
2022-11-08T13:54:23.837Z,1.67
2022-11-08T13:57:02.031Z,1.10
2022-11-08T13:59:33.026Z,1.20
2022-11-08T14:02:06.992Z,1.50
2022-11-08T14:04:42.107Z,1.20
2022-11-08T14:07:26.653Z,1.77
2022-11-08T14:10:18.702Z,1.58
2022-11-08T14:13:14.036Z,1.55
2022-11-08T14:15:49.329Z,1.50
2022-11-08T14:18:20.074Z,1.45
2022-11-08T14:20:51.780Z,1.50
2022-11-08T14:25:58.944Z,1.60
2022-11-08T14:28:36.174Z,1.92
2022-11-08T14:31:09.076Z,1.38
2022-11-08T14:33:46.129Z,1.40
2022-11-08T14:36:19.506Z,1.40
2022-11-08T14:39:07.214Z,1.33
2022-11-08T14:41:39.147Z,1.40
2022-11-08T14:44:17.125Z,1.20
2022-11-08T14:46:48.222Z,1.33
2022-11-08T14:49:36.584Z,1.23
2022-11-08T14:52:24.034Z,1.20
2022-11-08T14:55:24.819Z,1.20
2022-11-08T14:57:55.567Z,1.20
2022-11-08T15:00:31.175Z,0.98
2022-11-08T15:03:06.318Z,1.30
2022-11-08T15:05:43.719Z,1.30
2022-11-08T15:08:25.685Z,1.50
2022-11-08T15:11:11.674Z,1.40
2022-11-08T15:13:50.930Z,1.20
2022-11-08T15:16:22.186Z,0.93
2022-11-08T15:18:53.349Z,1.20
2022-11-08T15:21:34.239Z,1.45
2022-11-08T15:24:15.769Z,1.10
2022-11-08T15:27:06.043Z,1.02
2022-11-08T15:29:54.639Z,1.00
2022-11-08T15:32:25.846Z,0.98
2022-11-08T15:35:00.208Z,1.20
2022-11-08T15:37:44.116Z,1.05
2022-11-08T15:40:29.596Z,0.95
2022-11-08T15:43:01.686Z,1.10
2022-11-08T15:48:20.393Z,1.00
2022-11-08T15:50:52.186Z,1.02
2022-11-08T15:53:23.186Z,0.95
2022-11-08T15:56:06.079Z,0.90
2022-11-08T15:58:39.165Z,0.80
2022-11-08T16:01:21.667Z,1.02
2022-11-08T16:03:54.011Z,0.90
2022-11-08T16:06:25.059Z,0.90
2022-11-08T16:08:55.975Z,1.10
2022-11-08T16:11:26.801Z,1.02
2022-11-08T16:13:57.955Z,1.00
2022-11-08T16:16:33.991Z,0.98
2022-11-08T16:19:06.200Z,0.95
2022-11-08T16:21:37.083Z,1.20
2022-11-08T16:24:09.041Z,1.00
2022-11-08T16:26:40.684Z,1.10
2022-11-08T16:29:25.887Z,1.05
2022-11-08T16:31:56.990Z,0.90
2022-11-08T16:34:28.040Z,1.13
2022-11-08T16:36:58.915Z,1.30
2022-11-08T16:39:29.922Z,1.07
2022-11-08T16:42:00.695Z,1.10
2022-11-08T16:44:31.763Z,1.55
2022-11-08T16:47:02.578Z,1.40
2022-11-08T16:49:34.961Z,0.88
2022-11-08T16:52:05.938Z,0.82
2022-11-08T16:54:36.733Z,1.00
2022-11-08T16:57:33.078Z,1.00
2022-11-08T16:59:58.241Z,0.93
2022-11-08T17:02:34.884Z,1.00
2022-11-08T17:05:06.604Z,1.30
2022-11-08T17:10:08.332Z,1.10
2022-11-08T17:12:39.191Z,1.20
2022-11-08T17:15:22.651Z,1.55
2022-11-08T17:17:55.503Z,0.90
2022-11-08T17:20:27.574Z,1.00
2022-11-08T17:22:58.590Z,1.02
2022-11-08T17:25:29.505Z,0.90
2022-11-08T17:28:00.589Z,0.75
2022-11-08T17:30:31.615Z,1.10
2022-11-08T17:33:02.624Z,1.25
2022-11-08T17:35:33.927Z,1.10
2022-11-08T17:38:04.868Z,0.90
2022-11-08T17:40:35.967Z,0.90
2022-11-08T17:43:07.218Z,1.10
2022-11-08T17:45:38.659Z,0.82
2022-11-08T17:48:09.839Z,0.93
2022-11-08T17:50:40.732Z,1.40
2022-11-08T17:53:11.479Z,0.90
2022-11-08T17:55:42.227Z,0.80
2022-11-08T17:58:13.297Z,0.95
2022-11-08T18:00:44.270Z,0.82
2022-11-08T18:03:17.310Z,0.87
2022-11-08T18:06:15.296Z,0.90
2022-11-08T18:08:46.669Z,0.82
2022-11-08T18:11:17.890Z,0.88
2022-11-08T18:13:48.661Z,1.10
2022-11-08T18:16:23.558Z,1.00
2022-11-08T18:18:55.430Z,0.80
2022-11-08T18:23:56.994Z,0.90
2022-11-08T18:26:28.680Z,0.80
2022-11-08T18:28:59.464Z,1.05
2022-11-08T18:31:31.515Z,0.90
2022-11-08T18:34:02.998Z,0.80
2022-11-08T18:36:34.389Z,0.82
2022-11-08T18:39:05.334Z,0.88
2022-11-08T18:41:36.348Z,1.00
2022-11-08T18:44:08.107Z,1.02
2022-11-08T18:46:43.007Z,0.88
2022-11-08T18:49:14.470Z,0.90
2022-11-08T18:51:45.491Z,0.80
2022-11-08T18:54:16.261Z,0.70
2022-11-08T18:56:47.301Z,0.93
2022-11-08T18:59:18.200Z,0.70
2022-11-08T19:01:49.253Z,1.08
2022-11-08T19:04:20.268Z,0.73
2022-11-08T19:06:54.525Z,0.90
2022-11-08T19:09:25.630Z,0.80
2022-11-08T19:11:59.440Z,0.98
2022-11-08T19:14:32.650Z,0.77
2022-11-08T19:17:03.919Z,0.70
2022-11-08T19:19:34.702Z,0.73
2022-11-08T19:22:06.576Z,0.70
2022-11-08T19:24:37.547Z,0.60
2022-11-08T19:27:08.857Z,0.88
2022-11-08T19:29:39.832Z,0.60
2022-11-08T19:32:10.832Z,0.70
2022-11-08T19:34:42.839Z,0.70
2022-11-08T19:37:13.911Z,0.75
2022-11-08T19:39:44.619Z,0.70
2022-11-08T19:42:15.384Z,0.80
2022-11-08T19:47:17.438Z,0.63
2022-11-08T19:49:48.376Z,0.70
2022-11-08T19:52:19.355Z,0.60
2022-11-08T19:54:51.707Z,0.57
2022-11-08T19:57:23.043Z,0.75
2022-11-08T19:59:54.243Z,0.57
2022-11-08T20:02:25.114Z,0.63
2022-11-08T20:04:56.041Z,0.60
2022-11-08T20:07:26.789Z,0.80
2022-11-08T20:09:57.707Z,0.70
2022-11-08T20:12:29.010Z,0.63
2022-11-08T20:15:00.070Z,0.70
2022-11-08T20:17:30.864Z,0.50
2022-11-08T20:20:02.204Z,0.70
2022-11-08T20:22:33.285Z,0.60
2022-11-08T20:25:04.196Z,0.68
2022-11-08T20:27:35.286Z,0.82
2022-11-08T20:30:06.583Z,0.60
2022-11-08T20:32:37.821Z,0.57
2022-11-08T20:35:09.174Z,0.50
2022-11-08T20:37:40.418Z,0.60
2022-11-08T20:40:11.940Z,0.50
2022-11-08T20:42:42.917Z,0.60
2022-11-08T20:45:15.311Z,0.65
2022-11-08T20:47:48.272Z,0.70
2022-11-08T20:50:19.320Z,0.50
2022-11-08T20:52:50.184Z,0.50
2022-11-08T20:55:20.909Z,0.60
2022-11-08T20:57:51.792Z,0.80
2022-11-08T21:00:37.841Z,0.70
2022-11-08T21:03:17.871Z,0.80
2022-11-08T21:05:59.022Z,0.65
2022-11-08T21:11:22.541Z,0.60
2022-11-08T21:13:53.638Z,0.65
2022-11-08T21:16:30.357Z,0.70
2022-11-08T21:19:04.556Z,0.80
2022-11-08T21:21:35.934Z,0.80
2022-11-08T21:24:07.051Z,1.00
2022-11-08T21:26:38.145Z,1.10
2022-11-08T21:29:09.640Z,0.80
2022-11-08T21:31:40.891Z,0.82
2022-11-08T21:34:12.112Z,0.70
2022-11-08T21:36:43.122Z,0.70
2022-11-08T21:39:14.168Z,0.80
2022-11-08T21:41:45.117Z,0.70
2022-11-08T21:44:16.319Z,0.90
2022-11-08T21:46:48.092Z,0.80
2022-11-08T21:49:19.223Z,0.80
2022-11-08T21:51:50.510Z,0.77
2022-11-08T21:54:21.545Z,0.60
2022-11-08T21:56:52.878Z,0.50
2022-11-08T21:59:23.899Z,0.60
2022-11-08T22:01:55.025Z,0.60
2022-11-08T22:04:26.051Z,0.52
2022-11-08T22:06:57.111Z,0.80
2022-11-08T22:09:28.191Z,0.70
2022-11-08T22:11:59.381Z,0.60
2022-11-08T22:14:30.696Z,1.10
2022-11-08T22:17:01.839Z,1.00
2022-11-08T22:19:33.055Z,1.30
2022-11-08T22:22:04.283Z,1.05
2022-11-08T22:27:06.321Z,0.70
2022-11-08T22:29:37.520Z,0.80
2022-11-08T22:32:08.836Z,0.90
2022-11-08T22:34:40.336Z,0.90
2022-11-08T22:37:11.250Z,0.68
2022-11-08T22:39:42.160Z,0.73
2022-11-08T22:42:13.149Z,0.70
2022-11-08T22:44:44.385Z,0.60
2022-11-08T22:49:46.460Z,0.93
2022-11-08T22:52:17.367Z,0.65
2022-11-08T22:54:48.286Z,0.60
2022-11-08T22:57:19.630Z,0.90
2022-11-08T22:59:50.610Z,0.65
2022-11-08T23:02:21.559Z,0.80
2022-11-08T23:04:52.531Z,0.73
2022-11-08T23:07:23.446Z,0.93
2022-11-08T23:09:54.420Z,0.80
2022-11-08T23:12:43.309Z,0.85
2022-11-08T23:15:32.762Z,0.80
2022-11-08T23:18:03.768Z,0.60
2022-11-08T23:20:53.301Z,0.50
2022-11-08T23:23:42.114Z,0.50
2022-11-08T23:26:13.288Z,0.50
2022-11-08T23:29:02.584Z,0.60
2022-11-08T23:31:39.538Z,1.85
2022-11-08T23:34:10.589Z,1.45
2022-11-08T23:36:41.742Z,0.70
2022-11-08T23:39:12.758Z,0.80
2022-11-08T23:42:02.351Z,0.60
2022-11-08T23:44:33.750Z,1.00
2022-11-08T23:47:04.691Z,1.13
2022-11-08T23:52:07.054Z,0.60
2022-11-08T23:54:38.432Z,0.80
2022-11-08T23:57:09.358Z,0.70
2022-11-08T23:59:40.318Z,0.70
